createdAt,value
2023-03-13T00:00:33.666Z,17.00
2023-03-13T00:01:33.651Z,17.00
2023-03-13T00:02:33.686Z,17.10
2023-03-13T00:03:33.670Z,16.60
2023-03-13T00:04:33.705Z,16.80
2023-03-13T00:05:33.641Z,16.70
2023-03-13T00:06:33.644Z,16.90
2023-03-13T00:07:33.626Z,17.00
2023-03-13T00:08:33.628Z,16.80
2023-03-13T00:09:33.618Z,16.70
2023-03-13T00:10:33.617Z,16.60
2023-03-13T00:11:33.611Z,17.00
2023-03-13T00:12:33.610Z,16.80
2023-03-13T00:13:33.609Z,16.90
2023-03-13T00:14:33.602Z,16.90
2023-03-13T00:15:33.600Z,16.90
2023-03-13T00:16:33.679Z,16.90
2023-03-13T00:17:33.613Z,17.00
2023-03-13T00:18:33.588Z,16.90
2023-03-13T00:19:33.608Z,16.90
2023-03-13T00:20:33.586Z,17.00
2023-03-13T00:21:33.574Z,16.30
2023-03-13T00:22:33.580Z,17.10
2023-03-13T00:23:33.563Z,17.30
2023-03-13T00:24:33.562Z,17.10
2023-03-13T00:25:33.559Z,17.20
2023-03-13T00:26:33.556Z,17.20
2023-03-13T00:27:33.554Z,17.20
2023-03-13T00:28:33.551Z,17.40
2023-03-13T00:29:33.540Z,17.30
2023-03-13T00:30:33.580Z,17.20
2023-03-13T00:31:33.618Z,17.00
2023-03-13T00:32:33.570Z,17.00
2023-03-13T00:33:33.535Z,17.00
2023-03-13T00:34:33.536Z,17.10
2023-03-13T00:35:33.572Z,16.30
2023-03-13T00:36:33.519Z,16.50
2023-03-13T00:37:33.512Z,17.20
2023-03-13T00:38:33.518Z,16.80
2023-03-13T00:39:33.503Z,16.90
2023-03-13T00:40:33.509Z,16.50
2023-03-13T00:41:33.570Z,17.50
2023-03-13T00:42:33.494Z,16.90
2023-03-13T00:43:33.486Z,16.50
2023-03-13T00:44:33.485Z,16.80
2023-03-13T00:45:33.479Z,16.70
2023-03-13T00:46:33.565Z,17.00
2023-03-13T00:47:33.472Z,16.60
2023-03-13T00:48:33.471Z,16.50
2023-03-13T00:49:33.460Z,16.70
2023-03-13T00:50:33.464Z,16.30
2023-03-13T00:51:33.479Z,16.50
2023-03-13T00:52:33.456Z,16.10
2023-03-13T00:53:33.451Z,15.90
2023-03-13T00:54:33.451Z,16.20
2023-03-13T00:55:33.440Z,15.80
2023-03-13T00:56:33.439Z,16.10
2023-03-13T00:57:33.440Z,16.50
2023-03-13T00:58:33.432Z,16.30
2023-03-13T00:59:33.425Z,16.60
2023-03-13T01:00:33.431Z,16.30
2023-03-13T01:01:33.458Z,16.10
2023-03-13T01:02:33.598Z,16.70
2023-03-13T01:03:33.455Z,16.50
2023-03-13T01:04:33.413Z,16.20
2023-03-13T01:05:33.407Z,16.20
2023-03-13T01:06:33.418Z,16.20
2023-03-13T01:07:33.425Z,15.90
2023-03-13T01:08:33.403Z,16.10
2023-03-13T01:09:33.397Z,16.10
2023-03-13T01:10:33.396Z,16.20
2023-03-13T01:11:33.388Z,16.30
2023-03-13T01:12:33.388Z,16.10
2023-03-13T01:13:33.394Z,16.20
2023-03-13T01:14:33.385Z,16.20
2023-03-13T01:15:33.401Z,16.00
2023-03-13T01:16:33.371Z,16.10
2023-03-13T01:17:33.372Z,16.20
2023-03-13T01:18:33.369Z,16.50
2023-03-13T01:19:33.363Z,16.60
2023-03-13T01:20:33.363Z,16.10
2023-03-13T01:21:33.362Z,16.30
2023-03-13T01:22:33.353Z,16.60
2023-03-13T01:23:33.383Z,16.00
2023-03-13T01:24:33.347Z,16.10
2023-03-13T01:25:33.342Z,16.10
2023-03-13T01:26:33.338Z,16.50
2023-03-13T01:27:33.335Z,15.90
2023-03-13T01:28:33.331Z,16.20
2023-03-13T01:29:33.322Z,16.40
2023-03-13T01:30:33.329Z,16.10
2023-03-13T01:31:33.397Z,16.50
2023-03-13T01:32:33.352Z,16.20
2023-03-13T01:33:33.315Z,16.60
2023-03-13T01:34:33.313Z,16.60
2023-03-13T01:35:33.426Z,16.30
2023-03-13T01:36:33.303Z,15.90
2023-03-13T01:37:33.298Z,16.50
2023-03-13T01:38:33.296Z,16.20
2023-03-13T01:39:33.311Z,16.30
2023-03-13T01:40:33.291Z,16.50
2023-03-13T01:41:33.283Z,16.20
2023-03-13T01:42:33.285Z,16.00
2023-03-13T01:43:33.282Z,15.90
2023-03-13T01:44:33.277Z,15.90
2023-03-13T01:45:33.266Z,16.30
2023-03-13T01:46:33.359Z,15.90
2023-03-13T01:47:33.263Z,16.20
2023-03-13T01:48:33.264Z,16.00
2023-03-13T01:49:33.263Z,16.20
2023-03-13T01:50:33.265Z,16.40
2023-03-13T01:51:33.253Z,16.60
2023-03-13T01:52:33.251Z,16.00
2023-03-13T01:53:33.247Z,15.80
2023-03-13T01:54:33.247Z,15.90
2023-03-13T01:55:33.262Z,16.20
2023-03-13T01:56:33.233Z,15.80
2023-03-13T01:57:33.229Z,16.10
2023-03-13T01:58:33.226Z,16.10
2023-03-13T01:59:33.220Z,16.20
2023-03-13T02:00:33.222Z,15.90
2023-03-13T02:01:33.429Z,15.70
2023-03-13T02:02:33.317Z,15.70
2023-03-13T02:03:33.208Z,16.10
2023-03-13T02:04:33.211Z,16.10
2023-03-13T02:05:33.203Z,16.00
2023-03-13T02:06:33.196Z,15.80
2023-03-13T02:07:33.198Z,15.80
2023-03-13T02:08:33.213Z,16.20
2023-03-13T02:09:33.200Z,16.00
2023-03-13T02:10:33.191Z,16.10
2023-03-13T02:11:33.207Z,16.10
2023-03-13T02:12:33.181Z,16.20
2023-03-13T02:13:33.175Z,15.80
2023-03-13T02:14:33.176Z,16.20
2023-03-13T02:15:33.188Z,16.30
2023-03-13T02:16:33.207Z,16.60
2023-03-13T02:17:33.196Z,16.40
2023-03-13T02:18:33.172Z,16.10
2023-03-13T02:19:33.158Z,16.60
2023-03-13T02:20:33.148Z,16.70
2023-03-13T02:21:33.169Z,16.30
2023-03-13T02:22:33.138Z,16.20
2023-03-13T02:23:33.140Z,16.40
2023-03-13T02:24:33.138Z,16.20
2023-03-13T02:25:33.138Z,16.00
2023-03-13T02:26:33.130Z,16.40
2023-03-13T02:27:33.175Z,16.50
2023-03-13T02:28:33.118Z,16.50
2023-03-13T02:29:33.118Z,23.80
2023-03-13T02:30:33.116Z,26.90
2023-03-13T02:31:33.244Z,25.80
2023-03-13T02:32:33.201Z,24.80
2023-03-13T02:33:33.121Z,24.20
2023-03-13T02:34:33.106Z,25.10
2023-03-13T02:35:33.190Z,24.40
2023-03-13T02:36:33.092Z,23.80
2023-03-13T02:37:33.094Z,23.70
2023-03-13T02:38:33.096Z,23.60
2023-03-13T02:39:33.086Z,23.40
2023-03-13T02:40:33.084Z,23.90
2023-03-13T02:41:33.083Z,23.50
2023-03-13T02:42:33.071Z,24.30
2023-03-13T02:43:33.101Z,24.10
2023-03-13T02:44:33.094Z,24.50
2023-03-13T02:45:33.070Z,23.90
2023-03-13T02:46:33.133Z,24.00
2023-03-13T02:47:33.066Z,24.50
2023-03-13T02:48:33.057Z,23.70
2023-03-13T02:49:33.053Z,24.10
2023-03-13T02:50:33.048Z,24.40
2023-03-13T02:51:33.103Z,23.70
2023-03-13T02:52:33.052Z,24.00
2023-03-13T02:53:33.061Z,24.80
2023-03-13T02:54:33.048Z,23.80
2023-03-13T02:55:33.048Z,23.70
2023-03-13T02:56:33.052Z,24.10
2023-03-13T02:57:33.032Z,23.90
2023-03-13T02:58:35.509Z,23.80
2023-03-13T02:59:33.054Z,24.40
2023-03-13T03:00:33.064Z,23.80
2023-03-13T03:01:33.030Z,25.10
2023-03-13T03:02:33.011Z,24.20
2023-03-13T03:03:33.042Z,23.90
2023-03-13T03:04:33.005Z,23.90
2023-03-13T03:05:33.004Z,23.50
2023-03-13T03:06:33.003Z,24.10
2023-03-13T03:07:33.004Z,24.10
2023-03-13T03:08:32.991Z,24.10
2023-03-13T03:09:33.001Z,24.10
2023-03-13T03:10:32.983Z,23.40
2023-03-13T03:11:32.988Z,24.10
2023-03-13T03:12:32.979Z,23.40
2023-03-13T03:13:32.986Z,25.00
2023-03-13T03:14:32.978Z,24.20
2023-03-13T03:15:32.998Z,23.60
2023-03-13T03:16:33.002Z,23.10
2023-03-13T03:17:32.972Z,24.00
2023-03-13T03:18:34.606Z,24.00
2023-03-13T03:19:32.982Z,23.70
2023-03-13T03:20:32.955Z,23.10
2023-03-13T03:21:32.951Z,23.30
2023-03-13T03:22:32.941Z,23.50
2023-03-13T03:23:32.943Z,23.60
2023-03-13T03:24:32.938Z,23.40
2023-03-13T03:25:32.938Z,22.90
2023-03-13T03:26:32.936Z,23.30
2023-03-13T03:27:32.926Z,23.60
2023-03-13T03:28:32.920Z,23.50
2023-03-13T03:29:32.925Z,23.60
2023-03-13T03:30:32.913Z,23.60
2023-03-13T03:31:33.056Z,23.30
2023-03-13T03:32:32.989Z,23.40
2023-03-13T03:33:32.907Z,23.10
2023-03-13T03:34:32.902Z,23.10
2023-03-13T03:35:32.926Z,23.70
2023-03-13T03:36:32.895Z,23.00
2023-03-13T03:37:32.891Z,23.50
2023-03-13T03:38:32.888Z,23.70
2023-03-13T03:39:32.886Z,23.60
2023-03-13T03:40:32.878Z,23.30
2023-03-13T03:41:32.890Z,23.90
2023-03-13T03:42:32.872Z,23.80
2023-03-13T03:43:32.882Z,23.60
2023-03-13T03:44:32.870Z,24.30
2023-03-13T03:45:32.906Z,24.50
2023-03-13T03:46:32.856Z,24.30
2023-03-13T03:47:32.879Z,23.60
2023-03-13T03:48:32.859Z,24.20
2023-03-13T03:49:32.856Z,23.50
2023-03-13T03:50:32.858Z,23.90
2023-03-13T03:51:32.850Z,23.70
2023-03-13T03:52:32.841Z,23.50
2023-03-13T03:53:32.864Z,24.10
2023-03-13T03:55:10.137Z,22.80
2023-03-13T03:56:10.140Z,26.30
2023-03-13T03:57:10.156Z,26.70
2023-03-13T03:58:10.142Z,25.80
2023-03-13T03:59:10.120Z,27.50
2023-03-13T04:00:10.126Z,28.00
2023-03-13T04:01:10.145Z,28.60
2023-03-13T04:02:10.246Z,28.30
2023-03-13T04:03:10.224Z,25.70
2023-03-13T04:04:10.114Z,25.60
2023-03-13T04:05:10.116Z,25.40
2023-03-13T04:06:10.181Z,26.60
2023-03-13T04:07:10.111Z,26.20
2023-03-13T04:08:10.102Z,26.20
2023-03-13T04:09:10.106Z,25.70
2023-03-13T04:10:10.100Z,26.40
2023-03-13T04:11:10.102Z,26.30
2023-03-13T04:12:10.093Z,26.60
2023-03-13T04:13:10.090Z,26.50
2023-03-13T04:14:10.085Z,26.00
2023-03-13T04:15:10.078Z,26.60
2023-03-13T04:16:10.148Z,25.60
2023-03-13T04:17:10.076Z,25.70
2023-03-13T04:18:10.070Z,27.20
2023-03-13T04:19:10.090Z,27.70
2023-03-13T04:20:10.061Z,27.40
2023-03-13T04:21:10.057Z,27.40
2023-03-13T04:22:10.062Z,27.10
2023-03-13T04:23:10.051Z,27.30
2023-03-13T04:24:10.081Z,27.40
2023-03-13T04:25:10.049Z,27.20
2023-03-13T04:26:10.045Z,27.30
2023-03-13T04:27:10.034Z,27.20
2023-03-13T04:28:10.045Z,27.50
2023-03-13T04:29:10.041Z,26.30
2023-03-13T04:30:10.046Z,27.30
2023-03-13T04:31:10.138Z,28.20
2023-03-13T04:32:10.036Z,27.10
2023-03-13T04:33:10.025Z,27.50
2023-03-13T04:34:10.022Z,27.30
2023-03-13T04:35:10.128Z,28.50
2023-03-13T04:36:10.105Z,28.00
2023-03-13T04:37:10.002Z,26.10
2023-03-13T04:38:10.005Z,26.90
2023-03-13T04:39:09.996Z,26.20
2023-03-13T04:40:10.003Z,26.40
2023-03-13T04:41:09.993Z,25.80
2023-03-13T04:42:09.998Z,25.80
2023-03-13T04:43:09.999Z,25.10
2023-03-13T04:44:09.990Z,26.20
2023-03-13T04:45:09.977Z,26.20
2023-03-13T04:46:10.035Z,26.00
2023-03-13T04:47:09.976Z,26.50
2023-03-13T04:48:09.974Z,25.00
2023-03-13T04:49:09.972Z,26.40
2023-03-13T04:50:09.971Z,26.50
2023-03-13T04:51:09.988Z,26.10
2023-03-13T04:52:09.963Z,26.30
2023-03-13T04:53:09.953Z,27.00
2023-03-13T04:54:09.960Z,26.60
2023-03-13T04:55:09.951Z,26.40
2023-03-13T04:56:09.965Z,26.20
2023-03-13T04:57:09.944Z,26.80
2023-03-13T04:58:09.946Z,27.50
2023-03-13T04:59:09.937Z,26.10
2023-03-13T05:00:09.943Z,27.30
2023-03-13T05:01:09.992Z,27.70
2023-03-13T05:02:09.927Z,27.80
2023-03-13T05:03:09.921Z,27.50
2023-03-13T05:04:09.930Z,27.30
2023-03-13T05:05:09.978Z,27.00
2023-03-13T05:06:09.932Z,28.10
2023-03-13T05:07:09.939Z,27.00
2023-03-13T05:08:09.928Z,26.40
2023-03-13T05:09:09.909Z,26.20
2023-03-13T05:10:09.918Z,26.60
2023-03-13T05:11:09.911Z,26.20
2023-03-13T05:12:09.894Z,27.10
2023-03-13T05:13:09.894Z,26.80
2023-03-13T05:14:09.925Z,28.20
2023-03-13T05:15:09.894Z,27.10
2023-03-13T05:16:09.938Z,27.20
2023-03-13T05:17:09.876Z,27.80
2023-03-13T05:18:09.881Z,28.00
2023-03-13T05:19:09.876Z,27.50
2023-03-13T05:20:09.875Z,26.10
2023-03-13T05:22:12.457Z,26.50
2023-03-13T05:23:12.472Z,27.00
2023-03-13T05:24:12.456Z,27.90
2023-03-13T05:25:12.439Z,27.80
2023-03-13T05:26:12.432Z,27.00
2023-03-13T05:27:12.433Z,27.30
2023-03-13T05:28:12.427Z,28.50
2023-03-13T05:29:12.426Z,27.80
2023-03-13T05:30:12.423Z,26.50
2023-03-13T05:31:12.517Z,27.10
2023-03-13T05:32:12.416Z,28.00
2023-03-13T05:33:12.412Z,28.00
2023-03-13T05:34:12.405Z,27.00
2023-03-13T05:35:12.406Z,26.60
2023-03-13T05:36:12.423Z,26.90
2023-03-13T05:37:12.408Z,26.60
2023-03-13T05:38:12.396Z,25.90
2023-03-13T05:39:12.427Z,25.30
2023-03-13T05:40:12.397Z,26.40
2023-03-13T05:41:12.386Z,26.90
2023-03-13T05:42:12.396Z,27.10
2023-03-13T05:43:12.388Z,28.40
2023-03-13T05:44:12.378Z,28.10
2023-03-13T05:45:12.377Z,28.50
2023-03-13T05:46:12.444Z,27.60
2023-03-13T05:47:12.368Z,28.20
2023-03-13T05:48:12.357Z,28.50
2023-03-13T05:49:12.359Z,27.60
2023-03-13T05:52:47.742Z,26.80
2023-03-13T05:53:47.743Z,28.20
2023-03-13T05:54:47.759Z,28.50
2023-03-13T05:55:47.731Z,27.60
2023-03-13T05:56:47.728Z,28.20
2023-03-13T05:57:47.724Z,28.20
2023-03-13T05:58:47.724Z,26.70
2023-03-13T05:59:47.716Z,27.10
2023-03-13T06:00:47.714Z,28.50
2023-03-13T06:01:47.723Z,28.50
2023-03-13T06:02:47.700Z,29.70
2023-03-13T06:03:47.848Z,30.40
2023-03-13T06:04:47.969Z,30.50
2023-03-13T06:05:47.700Z,32.00
2023-03-13T06:06:47.689Z,32.50
2023-03-13T06:07:47.693Z,32.30
2023-03-13T06:08:47.687Z,32.40
2023-03-13T06:09:47.691Z,31.50
2023-03-13T06:10:47.698Z,31.80
2023-03-13T06:11:47.676Z,32.20
2023-03-13T06:12:49.084Z,32.20
2023-03-13T06:13:47.669Z,31.40
2023-03-13T06:17:13.499Z,31.40
2023-03-13T06:18:56.038Z,30.30
2023-03-13T06:19:56.046Z,30.70
2023-03-13T06:21:38.583Z,31.50
2023-03-13T06:26:05.202Z,31.40
2023-03-13T06:28:48.464Z,31.50
2023-03-13T06:30:31.005Z,30.50
2023-03-13T06:31:31.050Z,30.70
2023-03-13T06:33:49.744Z,32.50
2023-03-13T06:34:48.611Z,32.40
2023-03-13T06:35:56.425Z,31.40
2023-03-13T06:36:48.597Z,31.40
2023-03-13T06:37:48.587Z,32.20
2023-03-13T06:38:48.594Z,31.80
2023-03-13T06:39:48.622Z,31.30
2023-03-13T06:40:48.582Z,32.40
2023-03-13T06:41:48.602Z,32.00
2023-03-13T06:42:48.578Z,33.40
2023-03-13T06:43:48.579Z,33.30
2023-03-13T06:44:48.570Z,33.50
2023-03-13T06:45:48.605Z,32.10
2023-03-13T06:46:48.644Z,33.90
2023-03-13T06:47:48.556Z,35.20
2023-03-13T06:48:48.555Z,35.50
2023-03-13T06:49:48.552Z,36.10
2023-03-13T06:50:48.566Z,35.90
2023-03-13T06:51:48.547Z,34.90
2023-03-13T06:52:48.550Z,34.30
2023-03-13T06:53:48.575Z,33.70
2023-03-13T06:54:48.565Z,34.30
2023-03-13T06:55:49.446Z,33.20
2023-03-13T06:56:48.535Z,33.50
2023-03-13T06:57:48.540Z,34.10
2023-03-13T06:58:48.523Z,33.70
2023-03-13T06:59:48.514Z,34.20
2023-03-13T07:00:48.587Z,33.90
2023-03-13T07:01:48.509Z,33.40
2023-03-13T07:02:48.521Z,35.10
2023-03-13T07:03:48.543Z,34.30
2023-03-13T07:04:48.506Z,36.70
2023-03-13T07:05:48.504Z,33.70
2023-03-13T07:06:48.502Z,33.20
2023-03-13T07:07:48.514Z,36.60
2023-03-13T07:08:48.504Z,34.80
2023-03-13T07:09:48.489Z,33.70
2023-03-13T07:10:48.489Z,37.00
2023-03-13T07:11:48.482Z,34.40
2023-03-13T07:12:48.490Z,35.10
2023-03-13T07:13:48.502Z,36.30
2023-03-13T07:14:48.480Z,34.40
2023-03-13T07:15:48.469Z,34.80
2023-03-13T07:16:48.560Z,35.30
2023-03-13T07:17:48.474Z,34.00
2023-03-13T07:18:48.465Z,37.20
2023-03-13T07:19:48.477Z,34.60
2023-03-13T07:20:48.459Z,33.90
2023-03-13T07:21:48.450Z,38.40
2023-03-13T07:22:48.456Z,35.40
2023-03-13T07:23:48.447Z,33.70
2023-03-13T07:24:48.505Z,37.40
2023-03-13T07:25:48.437Z,35.70
2023-03-13T07:27:02.039Z,35.00
2023-03-13T07:27:48.441Z,37.10
2023-03-13T07:28:48.433Z,35.20
2023-03-13T07:29:48.454Z,36.60
2023-03-13T07:30:48.430Z,35.90
2023-03-13T07:31:48.467Z,39.60
2023-03-13T07:32:48.497Z,35.80
2023-03-13T07:33:48.416Z,34.90
2023-03-13T07:36:31.749Z,36.80
2023-03-13T07:37:31.715Z,40.60
2023-03-13T07:38:31.703Z,39.10
2023-03-13T07:39:31.702Z,37.70
2023-03-13T07:40:31.693Z,41.40
2023-03-13T07:42:59.321Z,39.90
2023-03-13T07:44:54.931Z,38.50
2023-03-13T07:46:39.431Z,42.70
2023-03-13T07:47:39.419Z,43.10
2023-03-13T07:48:39.430Z,46.20
2023-03-13T07:49:39.414Z,45.60
2023-03-13T07:50:39.481Z,43.80
2023-03-13T07:51:44.027Z,46.10
2023-03-13T07:52:39.462Z,45.30
2023-03-13T07:53:39.503Z,44.60
2023-03-13T07:54:39.401Z,46.00
2023-03-13T07:55:39.405Z,45.50
2023-03-13T07:56:39.394Z,45.90
2023-03-13T07:59:22.869Z,46.10
2023-03-13T08:04:59.693Z,47.90
2023-03-13T08:54:54.592Z,50.70
2023-03-13T08:55:51.959Z,49.40
2023-03-13T08:56:51.939Z,48.70
2023-03-13T08:57:51.939Z,50.30
2023-03-13T08:58:51.959Z,51.10
2023-03-13T08:59:51.939Z,49.50
2023-03-13T09:00:51.928Z,50.70
2023-03-13T09:01:51.930Z,50.00
2023-03-13T09:02:51.953Z,51.50
2023-03-13T09:03:51.990Z,51.20
2023-03-13T09:04:51.918Z,51.10
2023-03-13T09:05:56.543Z,53.20
2023-03-13T09:06:51.909Z,52.10
2023-03-13T09:07:51.910Z,53.00
2023-03-13T09:08:51.923Z,53.10
2023-03-13T09:09:51.902Z,53.50
2023-03-13T09:10:51.921Z,54.30
2023-03-13T09:11:51.906Z,53.70
2023-03-13T09:12:51.888Z,54.30
2023-03-13T09:13:51.899Z,52.60
2023-03-13T09:14:51.886Z,54.20
2023-03-13T09:15:51.921Z,53.20
2023-03-13T09:16:51.893Z,54.10
2023-03-13T09:17:51.937Z,52.40
2023-03-13T09:18:51.988Z,52.50
2023-03-13T09:20:00.036Z,52.10
2023-03-13T09:20:51.881Z,51.30
2023-03-13T09:21:51.867Z,52.30
2023-03-13T09:22:51.861Z,51.40
2023-03-13T09:23:51.865Z,51.30
2023-03-13T09:24:51.852Z,51.90
2023-03-13T09:25:51.859Z,52.70
2023-03-13T09:27:00.978Z,50.80
2023-03-13T09:27:51.853Z,51.60
2023-03-13T09:28:52.113Z,53.80
2023-03-13T09:29:51.857Z,52.30
2023-03-13T09:30:51.872Z,51.40
2023-03-13T09:31:51.837Z,51.10
2023-03-13T09:32:51.888Z,53.10
2023-03-13T09:33:51.836Z,53.40
2023-03-13T09:35:34.372Z,49.20
2023-03-13T09:36:34.384Z,49.20
2023-03-13T09:37:34.372Z,50.40
2023-03-13T09:38:34.366Z,52.00
2023-03-13T09:39:34.359Z,51.90
2023-03-13T09:40:34.363Z,51.60
2023-03-13T09:41:34.452Z,50.40
2023-03-13T09:42:34.375Z,52.60
2023-03-13T09:43:34.344Z,53.00
2023-03-13T09:44:34.348Z,53.50
2023-03-13T09:45:34.358Z,54.10
2023-03-13T09:46:34.400Z,55.80
2023-03-13T09:47:34.335Z,55.80
2023-03-13T09:51:17.633Z,56.50
2023-03-13T09:52:17.636Z,54.60
2023-03-13T09:53:17.641Z,54.60
2023-03-13T09:54:17.617Z,54.30
2023-03-13T09:55:17.625Z,54.60
2023-03-13T09:56:17.612Z,56.40
2023-03-13T09:57:17.608Z,55.40
2023-03-13T09:58:17.628Z,55.70
2023-03-13T09:59:17.618Z,52.80
2023-03-13T10:00:17.602Z,53.50
2023-03-13T10:01:17.635Z,53.70
2023-03-13T10:02:17.596Z,52.60
2023-03-13T10:03:17.603Z,53.80
2023-03-13T10:04:17.634Z,54.00
2023-03-13T10:05:17.588Z,54.60
2023-03-13T10:06:17.582Z,55.80
2023-03-13T10:07:17.584Z,55.50
2023-03-13T10:08:17.582Z,55.70
2023-03-13T10:09:17.576Z,54.70
2023-03-13T10:10:17.575Z,53.90
2023-03-13T10:13:48.451Z,55.40
2023-03-13T10:16:31.772Z,55.20
2023-03-13T10:19:04.343Z,56.10
2023-03-13T10:20:04.349Z,56.20
2023-03-13T10:21:04.343Z,54.80
2023-03-13T10:22:04.341Z,54.90
2023-03-13T10:23:04.336Z,55.30
2023-03-13T10:24:04.332Z,54.40
2023-03-13T10:25:04.331Z,54.60
2023-03-13T10:26:04.329Z,55.20
2023-03-13T10:27:04.324Z,57.20
2023-03-13T10:28:04.317Z,57.10
2023-03-13T10:29:04.345Z,56.70
2023-03-13T10:30:04.318Z,57.50
2023-03-13T10:31:04.452Z,56.20
2023-03-13T10:32:04.309Z,57.00
2023-03-13T10:33:04.308Z,57.10
2023-03-13T10:34:04.304Z,56.50
2023-03-13T10:35:04.313Z,56.10
2023-03-13T10:36:04.365Z,57.50
2023-03-13T10:37:04.307Z,57.50
2023-03-13T10:38:04.293Z,57.30
2023-03-13T10:39:04.297Z,58.30
2023-03-13T10:40:04.294Z,59.20
2023-03-13T10:41:04.293Z,59.50
2023-03-13T10:42:04.281Z,58.50
2023-03-13T10:43:04.291Z,59.60
2023-03-13T10:44:04.282Z,60.10
2023-03-13T10:45:04.297Z,58.90
2023-03-13T10:46:04.268Z,58.30
2023-03-13T10:47:04.388Z,58.10
2023-03-13T10:48:04.323Z,57.50
2023-03-13T10:49:04.290Z,58.20
2023-03-13T10:50:04.270Z,57.80
2023-03-13T10:51:04.290Z,58.50
2023-03-13T10:52:04.268Z,58.30
2023-03-13T10:53:04.273Z,57.30
2023-03-13T10:54:04.249Z,57.20
2023-03-13T10:55:04.263Z,56.40
2023-03-13T10:56:04.263Z,56.10
2023-03-13T10:57:04.261Z,57.30
2023-03-13T10:58:04.241Z,56.10
2023-03-13T10:59:04.254Z,58.10
2023-03-13T11:00:04.424Z,56.50
2023-03-13T11:01:04.296Z,55.90
2023-03-13T11:02:04.235Z,57.80
2023-03-13T11:03:04.396Z,57.80
2023-03-13T11:04:04.231Z,57.20
2023-03-13T11:05:04.232Z,57.60
2023-03-13T11:06:04.227Z,58.00
2023-03-13T11:07:04.230Z,56.40
2023-03-13T11:08:04.288Z,56.30
2023-03-13T11:09:04.221Z,56.00
2023-03-13T11:10:04.225Z,56.50
2023-03-13T11:11:04.228Z,55.60
2023-03-13T11:12:04.215Z,56.30
2023-03-13T11:13:04.224Z,57.00
2023-03-13T11:14:04.214Z,56.70
2023-03-13T11:15:04.282Z,57.20
2023-03-13T11:16:04.344Z,56.80
2023-03-13T11:17:04.229Z,55.30
2023-03-13T11:18:04.219Z,55.10
2023-03-13T11:19:04.222Z,54.70
2023-03-13T11:20:04.209Z,55.50
2023-03-13T11:21:17.295Z,52.70
2023-03-13T11:22:04.263Z,55.30
2023-03-13T11:23:04.195Z,55.70
2023-03-13T11:24:04.197Z,56.20
2023-03-13T11:25:04.196Z,56.10
2023-03-13T11:26:04.188Z,57.30
2023-03-13T11:27:05.396Z,57.50
2023-03-13T11:31:00.126Z,57.60
2023-03-13T11:34:20.319Z,55.70
2023-03-13T11:35:20.275Z,55.60
2023-03-13T11:36:20.281Z,55.20
2023-03-13T11:37:20.272Z,54.20
2023-03-13T11:38:20.265Z,53.70
2023-03-13T11:39:20.258Z,54.20
2023-03-13T11:40:20.262Z,55.70
2023-03-13T11:41:20.302Z,55.60
2023-03-13T11:43:32.864Z,56.60
2023-03-13T11:44:32.852Z,57.30
2023-03-13T11:45:33.002Z,55.80
2023-03-13T11:46:33.050Z,56.20
2023-03-13T11:47:32.862Z,56.10
2023-03-13T11:48:32.849Z,53.60
2023-03-13T11:49:32.879Z,54.80
2023-03-13T11:50:32.845Z,55.50
2023-03-13T11:51:32.985Z,53.20
2023-03-13T11:52:32.848Z,54.50
2023-03-13T11:53:32.853Z,55.40
2023-03-13T11:54:32.853Z,55.80
2023-03-13T11:55:32.843Z,54.40
2023-03-13T11:56:32.845Z,53.90
2023-03-13T11:57:32.854Z,56.20
2023-03-13T11:58:32.838Z,55.60
2023-03-13T11:59:32.844Z,55.20
2023-03-13T12:00:32.837Z,56.00
2023-03-13T12:01:32.842Z,55.40
2023-03-13T12:02:32.916Z,57.00
2023-03-13T12:03:32.988Z,57.00
2023-03-13T12:04:32.836Z,57.40
2023-03-13T12:05:32.921Z,55.30
2023-03-13T12:06:32.828Z,55.40
2023-03-13T12:07:32.837Z,54.60
2023-03-13T12:08:32.829Z,56.10
2023-03-13T12:09:32.827Z,57.00
2023-03-13T12:10:32.828Z,56.20
2023-03-13T12:11:32.826Z,54.60
2023-03-13T12:12:32.826Z,55.00
2023-03-13T12:13:32.828Z,54.50
2023-03-13T12:14:32.821Z,53.40
2023-03-13T12:15:32.819Z,54.50
2023-03-13T12:16:32.923Z,55.30
2023-03-13T12:17:32.929Z,55.70
2023-03-13T12:18:32.818Z,56.10
2023-03-13T12:19:32.820Z,55.20
2023-03-13T12:20:32.809Z,55.70
2023-03-13T12:21:32.917Z,55.00
2023-03-13T12:22:32.814Z,54.20
2023-03-13T12:23:32.868Z,54.70
2023-03-13T12:24:32.809Z,54.50
2023-03-13T12:25:32.925Z,53.90
2023-03-13T12:26:32.809Z,53.90
2023-03-13T12:27:32.848Z,54.30
2023-03-13T12:28:32.876Z,53.00
2023-03-13T12:29:32.804Z,53.60
2023-03-13T12:30:32.818Z,54.50
2023-03-13T12:31:32.815Z,54.00
2023-03-13T12:32:32.848Z,52.70
2023-03-13T12:33:32.805Z,53.00
2023-03-13T12:34:32.803Z,52.00
2023-03-13T12:35:32.807Z,51.70
2023-03-13T12:36:32.794Z,50.90
2023-03-13T12:37:32.831Z,50.20
2023-03-13T12:38:32.801Z,49.70
2023-03-13T12:39:32.796Z,50.20
2023-03-13T12:40:32.794Z,50.30
2023-03-13T12:41:32.803Z,43.40
2023-03-13T12:42:32.793Z,43.70
2023-03-13T12:43:32.818Z,44.30
2023-03-13T12:44:32.794Z,44.30
2023-03-13T12:45:32.835Z,42.90
2023-03-13T12:46:32.930Z,44.50
2023-03-13T12:47:32.829Z,45.90
2023-03-13T12:48:32.893Z,45.80
2023-03-13T12:49:32.803Z,42.80
2023-03-13T12:50:32.797Z,42.70
2023-03-13T12:51:32.797Z,42.60
2023-03-13T12:52:32.786Z,42.00
2023-03-13T12:53:32.923Z,42.20
2023-03-13T12:54:32.783Z,42.50
2023-03-13T12:55:32.793Z,36.90
2023-03-13T12:56:32.797Z,35.10
2023-03-13T12:57:32.834Z,33.20
2023-03-13T12:58:32.794Z,34.70
2023-03-13T12:59:32.785Z,36.00
2023-03-13T13:00:32.774Z,32.90
2023-03-13T13:01:32.904Z,33.60
2023-03-13T13:02:32.795Z,33.70
2023-03-13T13:03:32.986Z,31.90
2023-03-13T13:04:32.863Z,29.60
2023-03-13T13:05:32.776Z,30.40
2023-03-13T13:06:32.815Z,29.40
2023-03-13T13:07:32.786Z,26.40
2023-03-13T13:08:32.782Z,26.00
2023-03-13T13:09:32.841Z,24.80
2023-03-13T13:10:32.841Z,23.70
2023-03-13T13:11:32.780Z,22.80
2023-03-13T13:12:32.771Z,22.40
2023-03-13T13:13:32.774Z,21.90
2023-03-13T13:14:32.772Z,21.20
2023-03-13T13:15:32.868Z,21.50
2023-03-13T13:16:32.797Z,21.90
2023-03-13T13:17:32.778Z,22.10
2023-03-13T13:18:32.767Z,22.10
2023-03-13T13:19:32.775Z,20.80
2023-03-13T13:20:32.786Z,20.60
2023-03-13T13:21:32.771Z,20.40
2023-03-13T13:22:32.788Z,20.30
2023-03-13T13:23:32.775Z,20.40
2023-03-13T13:24:32.769Z,19.70
2023-03-13T13:25:32.796Z,20.50
2023-03-13T13:26:32.769Z,19.70
2023-03-13T13:27:32.765Z,20.50
2023-03-13T13:28:32.770Z,20.00
2023-03-13T13:29:32.771Z,19.80
2023-03-13T13:30:32.845Z,19.80
2023-03-13T13:31:32.915Z,19.60
2023-03-13T13:32:32.868Z,19.30
2023-03-13T13:33:32.766Z,19.20
2023-03-13T13:34:32.766Z,19.90
2023-03-13T13:35:32.826Z,19.00
2023-03-13T13:36:32.769Z,20.00
2023-03-13T13:37:32.773Z,19.80
2023-03-13T13:38:32.760Z,19.30
2023-03-13T13:39:32.867Z,18.50
2023-03-13T13:40:32.760Z,19.40
2023-03-13T13:41:32.881Z,19.30
2023-03-13T13:42:32.784Z,17.90
2023-03-13T13:43:32.766Z,19.30
2023-03-13T13:44:32.759Z,18.70
2023-03-13T13:45:32.767Z,18.90
2023-03-13T13:46:32.850Z,18.20
2023-03-13T13:47:33.829Z,18.70
2023-03-13T13:48:32.784Z,17.80
2023-03-13T13:49:32.764Z,17.00
2023-03-13T13:50:32.760Z,17.20
2023-03-13T13:51:32.763Z,17.20
2023-03-13T13:52:32.762Z,16.70
2023-03-13T13:53:33.129Z,16.40
2023-03-13T13:54:32.772Z,16.70
2023-03-13T13:55:32.773Z,16.20
2023-03-13T13:56:32.841Z,15.60
2023-03-13T13:57:32.819Z,16.10
2023-03-13T13:58:32.766Z,16.30
2023-03-13T13:59:32.780Z,16.30
2023-03-13T14:00:32.761Z,16.20
2023-03-13T14:01:32.838Z,16.30
2023-03-13T14:02:32.769Z,16.60
2023-03-13T14:03:32.777Z,15.70
2023-03-13T14:04:32.762Z,15.90
2023-03-13T14:05:32.918Z,15.70
2023-03-13T14:06:32.760Z,16.40
2023-03-13T14:07:32.770Z,15.40
2023-03-13T14:08:32.766Z,16.20
2023-03-13T14:09:32.771Z,15.70
2023-03-13T14:10:32.768Z,15.40
2023-03-13T14:11:32.765Z,15.80
2023-03-13T14:12:32.797Z,16.30
2023-03-13T14:13:32.790Z,15.30
2023-03-13T14:14:32.789Z,15.20
2023-03-13T14:15:32.780Z,15.90
2023-03-13T14:16:32.855Z,15.90
2023-03-13T14:17:32.771Z,14.80
2023-03-13T14:18:32.776Z,16.80
2023-03-13T14:19:32.768Z,16.70
2023-03-13T14:20:32.789Z,16.70
2023-03-13T14:21:32.769Z,15.50
2023-03-13T14:22:32.762Z,15.20
2023-03-13T14:23:32.818Z,16.00